Time;durP1;ratioP1;P1;durP2;ratioP2;P2;SDS_P1;SDS_P2;PMS_P1;PMS_P2;Temp;Humidity;BMP_temperature;BMP_pressure;BME280_temperature;BME280_humidity;BME280_pressure;Samples;Min_cycle;Max_cycle;Signal;HPM_P1;HPM_P2
2021/12/01 00:01:45;;;;;;;7.30;6.47;;;10.40;99.90;;;;;;5075473;28;20634;-74
2021/12/01 00:04:11;;;;;;;7.27;6.70;;;10.40;99.90;;;;;;5075686;28;20627;-74
2021/12/01 00:06:36;;;;;;;6.10;5.70;;;10.40;99.90;;;;;;5075304;28;20177;-75
2021/12/01 00:09:04;;;;;;;6.30;5.90;;;10.40;99.90;;;;;;5075059;28;20173;-75
2021/12/01 00:11:29;;;;;;;6.23;5.90;;;10.40;99.90;;;;;;5074755;28;20197;-74
2021/12/01 00:13:55;;;;;;;6.10;5.80;;;10.40;99.90;;;;;;5075431;28;20176;-73
2021/12/01 00:16:21;;;;;;;6.20;5.77;;;10.40;99.90;;;;;;5075133;28;20535;-73
2021/12/01 00:18:46;;;;;;;5.63;5.23;;;10.40;99.90;;;;;;5075212;28;20222;-73
2021/12/01 00:21:12;;;;;;;5.93;5.53;;;10.40;99.90;;;;;;5074915;28;20231;-73
2021/12/01 00:23:38;;;;;;;5.80;5.30;;;10.40;99.90;;;;;;5074702;28;20204;-74
2021/12/01 00:26:04;;;;;;;5.40;5.00;;;10.30;99.90;;;;;;5074650;28;20164;-74
2021/12/01 00:28:30;;;;;;;4.90;4.60;;;10.30;99.90;;;;;;5075072;28;20175;-74
2021/12/01 00:30:58;;;;;;;4.27;4.00;;;10.30;99.90;;;;;;5075369;28;20168;-73
2021/12/01 00:33:24;;;;;;;4.77;4.37;;;10.30;99.90;;;;;;5075114;28;20234;-74
2021/12/01 00:35:55;;;;;;;4.67;4.33;;;10.30;99.90;;;;;;5074944;28;20196;-74
2021/12/01 00:38:22;;;;;;;4.27;3.90;;;10.30;99.90;;;;;;5074679;28;20176;-74
2021/12/01 00:40:48;;;;;;;3.70;3.50;;;10.30;99.90;;;;;;5074474;28;20589;-74
2021/12/01 00:43:18;;;;;;;3.60;3.40;;;10.30;99.90;;;;;;5074639;28;20235;-73
2021/12/01 00:45:59;;;;;;;4.00;3.80;;;10.40;99.90;;;;;;5074934;28;20153;-74
2021/12/01 00:48:26;;;;;;;3.43;3.23;;;10.40;99.90;;;;;;5074970;28;20177;-73
2021/12/01 00:50:53;;;;;;;4.03;3.63;;;10.40;99.90;;;;;;5074689;28;20168;-74
2021/12/01 00:53:19;;;;;;;3.10;2.90;;;10.40;99.90;;;;;;5074307;28;20263;-73
2021/12/01 00:55:44;;;;;;;3.53;3.30;;;10.40;99.90;;;;;;5074134;28;20200;-74
2021/12/01 00:58:12;;;;;;;3.30;3.10;;;10.40;99.90;;;;;;5074825;28;20188;-73
2021/12/01 01:00:40;;;;;;;3.80;3.60;;;10.40;99.90;;;;;;5074678;28;20239;-73
2021/12/01 01:03:05;;;;;;;3.87;3.67;;;10.30;99.90;;;;;;5074265;28;20215;-73
2021/12/01 01:05:31;;;;;;;3.53;3.33;;;10.30;99.90;;;;;;5072771;28;20176;-73
2021/12/01 01:07:57;;;;;;;3.60;3.30;;;10.30;99.90;;;;;;5074182;28;20172;-73
2021/12/01 01:18:25;;;;;;;3.63;3.33;;;10.20;99.90;;;;;;5074389;28;20272;-74
2021/12/01 01:20:51;;;;;;;3.23;3.00;;;10.20;99.90;;;;;;5073541;28;20168;-73
2021/12/01 01:23:16;;;;;;;4.13;2.87;;;10.10;99.90;;;;;;5073273;28;20279;-73
2021/12/01 01:25:42;;;;;;;3.87;3.47;;;10.00;99.90;;;;;;5073948;28;20173;-73
2021/12/01 01:28:08;;;;;;;3.57;3.37;;;10.10;99.90;;;;;;5073751;28;20217;-73
2021/12/01 01:30:34;;;;;;;4.30;4.00;;;10.10;99.90;;;;;;5073875;28;20176;-73
2021/12/01 01:33:00;;;;;;;4.67;4.27;;;10.00;99.90;;;;;;5073680;28;20176;-74
2021/12/01 01:35:26;;;;;;;3.83;3.63;;;10.10;99.90;;;;;;5073481;28;20165;-73
2021/12/01 01:37:51;;;;;;;4.10;3.80;;;10.00;99.90;;;;;;5071987;28;20177;-73
2021/12/01 01:40:20;;;;;;;4.77;4.47;;;9.90;99.90;;;;;;5073870;28;20200;-74
2021/12/01 01:42:46;;;;;;;4.90;4.50;;;9.90;99.90;;;;;;5073487;28;20266;-74
2021/12/01 01:45:11;;;;;;;5.27;4.77;;;9.80;99.90;;;;;;5073469;28;20168;-74
2021/12/01 01:47:58;;;;;;;5.70;5.10;;;9.70;99.90;;;;;;5073496;28;20195;-73
2021/12/01 01:50:34;;;;;;;6.60;6.00;;;9.60;99.90;;;;;;5073426;28;20168;-75
2021/12/01 01:53:01;;;;;;;5.87;5.20;;;9.60;99.90;;;;;;5072998;28;20259;-75
2021/12/01 01:55:27;;;;;;;7.00;5.47;;;9.60;99.90;;;;;;5073457;28;20226;-75
2021/12/01 01:57:52;;;;;;;6.57;6.07;;;9.50;99.90;;;;;;5073445;28;20562;-73
2021/12/01 02:00:18;;;;;;;7.43;5.63;;;9.50;99.90;;;;;;5073366;28;20268;-73
2021/12/01 02:02:45;;;;;;;6.47;5.90;;;9.60;99.90;;;;;;5073277;28;20258;-75
2021/12/01 02:05:11;;;;;;;6.83;6.20;;;9.60;99.90;;;;;;5073006;28;20643;-74
2021/12/01 02:07:36;;;;;;;6.30;5.80;;;9.60;99.90;;;;;;5073010;28;20210;-75
2021/12/01 02:10:03;;;;;;;6.37;5.87;;;9.50;99.90;;;;;;5073212;28;20177;-74
2021/12/01 02:12:29;;;;;;;7.47;6.07;;;9.60;99.90;;;;;;5073068;28;20203;-75
2021/12/01 02:14:56;;;;;;;6.93;6.27;;;9.50;99.90;;;;;;5073164;28;20275;-74
2021/12/01 02:17:21;;;;;;;5.67;5.13;;;9.60;99.90;;;;;;5073344;28;20173;-73
2021/12/01 02:19:51;;;;;;;5.50;5.10;;;9.50;99.90;;;;;;5072968;28;20175;-74
2021/12/01 02:22:17;;;;;;;8.63;5.63;;;9.60;99.90;;;;;;5072186;28;20259;-74
2021/12/01 02:24:46;;;;;;;6.10;5.50;;;9.60;99.90;;;;;;5072876;28;20676;-74
2021/12/01 02:27:13;;;;;;;6.20;5.60;;;9.60;99.90;;;;;;5073037;28;20173;-74
2021/12/01 02:29:38;;;;;;;5.93;5.40;;;9.60;99.90;;;;;;5073124;28;20191;-75
2021/12/01 02:32:04;;;;;;;6.83;6.33;;;9.60;99.90;;;;;;5072954;28;20176;-75
2021/12/01 02:34:35;;;;;;;5.67;5.17;;;9.60;99.90;;;;;;5072735;28;20176;-74
2021/12/01 02:37:01;;;;;;;5.70;5.30;;;9.50;99.90;;;;;;5072743;28;20187;-74
2021/12/01 02:39:28;;;;;;;6.40;5.80;;;9.50;99.90;;;;;;5073213;28;20255;-73
2021/12/01 02:41:57;;;;;;;5.90;5.30;;;9.50;99.90;;;;;;5072877;28;20196;-73
2021/12/01 02:44:23;;;;;;;5.67;5.17;;;9.50;99.90;;;;;;5072896;28;20251;-74
2021/12/01 02:46:49;;;;;;;5.60;5.13;;;9.50;99.90;;;;;;5072717;28;20188;-74
2021/12/01 02:49:22;;;;;;;5.83;5.37;;;9.50;99.90;;;;;;5072950;28;20631;-74
2021/12/01 02:51:49;;;;;;;6.50;5.60;;;9.50;99.90;;;;;;5072484;28;20235;-74
2021/12/01 02:54:15;;;;;;;5.13;4.70;;;9.40;99.90;;;;;;5073032;28;20666;-74
2021/12/01 02:56:45;;;;;;;6.73;5.40;;;9.40;99.90;;;;;;5072724;28;20193;-74
2021/12/01 02:59:11;;;;;;;5.47;5.00;;;9.40;99.90;;;;;;5073048;28;20165;-74
2021/12/01 03:01:37;;;;;;;4.77;4.40;;;9.60;99.90;;;;;;5072396;28;20168;-74
2021/12/01 03:04:03;;;;;;;4.77;4.33;;;9.50;99.90;;;;;;5072610;28;20539;-74
2021/12/01 03:06:29;;;;;;;4.17;3.97;;;9.50;99.90;;;;;;5072231;28;20177;-74
2021/12/01 03:08:57;;;;;;;4.77;4.33;;;9.50;99.90;;;;;;5072781;28;20173;-74
2021/12/01 03:11:24;;;;;;;4.70;4.23;;;9.40;99.90;;;;;;5072707;28;20644;-74
2021/12/01 03:13:49;;;;;;;6.30;4.33;;;9.40;99.90;;;;;;5072729;28;20272;-73
2021/12/01 03:16:15;;;;;;;4.37;3.97;;;9.40;99.90;;;;;;5072607;28;20267;-74
2021/12/01 03:18:44;;;;;;;4.70;4.20;;;9.40;99.90;;;;;;5071042;28;20607;-74
2021/12/01 03:21:11;;;;;;;4.23;3.83;;;9.40;99.90;;;;;;5072904;28;20650;-73
2021/12/01 03:23:40;;;;;;;3.77;3.47;;;9.40;99.90;;;;;;5076269;28;20200;-73
2021/12/01 03:26:06;;;;;;;4.00;3.60;;;9.40;99.90;;;;;;5076254;28;20164;-74
2021/12/01 03:28:32;;;;;;;3.70;3.40;;;9.50;99.90;;;;;;5076324;28;20172;-73
2021/12/01 03:30:58;;;;;;;3.17;2.97;;;9.40;99.90;;;;;;5076172;28;20195;-73
2021/12/01 03:33:23;;;;;;;3.60;3.40;;;9.30;99.90;;;;;;5075432;28;20248;-73
2021/12/01 03:35:51;;;;;;;4.70;3.67;;;9.30;99.90;;;;;;5075514;28;20263;-74
2021/12/01 03:38:18;;;;;;;3.70;3.40;;;9.30;99.90;;;;;;5075792;28;20639;-74
2021/12/01 03:40:44;;;;;;;3.80;3.40;;;9.20;99.90;;;;;;5075809;28;20525;-74
2021/12/01 03:43:10;;;;;;;3.80;3.57;;;9.10;99.90;;;;;;5075653;28;20218;-75
2021/12/01 03:45:37;;;;;;;4.63;3.60;;;9.10;99.90;;;;;;5075712;28;20173;-75
2021/12/01 03:48:04;;;;;;;3.40;3.13;;;9.10;99.90;;;;;;5075491;28;20211;-75
2021/12/01 03:50:29;;;;;;;5.10;3.77;;;9.20;99.90;;;;;;5075911;28;20222;-75
2021/12/01 03:52:55;;;;;;;3.10;2.90;;;9.10;99.90;;;;;;5075787;28;20172;-75
2021/12/01 03:55:21;;;;;;;5.57;3.23;;;9.10;99.90;;;;;;5075621;28;20173;-75
2021/12/01 03:57:46;;;;;;;3.50;3.20;;;9.10;99.90;;;;;;5075769;28;20644;-75
2021/12/01 04:00:14;;;;;;;2.83;2.63;;;9.20;99.90;;;;;;5075504;28;20161;-75
2021/12/01 04:02:42;;;;;;;3.33;2.60;;;9.10;99.90;;;;;;5074753;28;20246;-75
2021/12/01 04:05:08;;;;;;;3.17;2.97;;;9.20;99.90;;;;;;5075563;28;20172;-74
2021/12/01 04:07:34;;;;;;;3.30;2.77;;;9.20;99.90;;;;;;5075751;28;20226;-74
2021/12/01 04:10:01;;;;;;;3.87;3.57;;;9.20;99.90;;;;;;5075440;28;20552;-74
2021/12/01 04:12:27;;;;;;;4.27;3.87;;;9.10;99.90;;;;;;5073796;28;20558;-74
2021/12/01 04:14:52;;;;;;;5.13;4.40;;;9.10;99.90;;;;;;5074888;28;20160;-73
2021/12/01 04:17:21;;;;;;;5.87;4.83;;;9.20;99.90;;;;;;5074893;28;20567;-73
2021/12/01 04:19:47;;;;;;;8.60;6.03;;;9.20;99.90;;;;;;5075273;28;20715;-75
2021/12/01 04:22:12;;;;;;;5.67;5.10;;;9.20;99.90;;;;;;5074278;28;20310;-73
2021/12/01 04:24:38;;;;;;;8.27;6.93;;;9.20;99.90;;;;;;5075180;28;20222;-74
2021/12/01 04:27:04;;;;;;;7.03;6.33;;;9.20;99.90;;;;;;5075088;28;20263;-74
2021/12/01 04:29:30;;;;;;;7.57;5.40;;;9.20;99.90;;;;;;5074662;28;20187;-74
2021/12/01 04:31:56;;;;;;;6.33;5.30;;;9.20;99.90;;;;;;5073727;28;20263;-74
2021/12/01 04:34:21;;;;;;;7.47;5.13;;;9.30;99.90;;;;;;5074398;28;20199;-74
2021/12/01 04:36:49;;;;;;;5.20;4.73;;;9.20;99.90;;;;;;5074745;28;20251;-76
2021/12/01 04:39:17;;;;;;;4.27;3.97;;;9.20;99.90;;;;;;5073481;28;20590;-74
2021/12/01 04:41:55;;;;;;;4.40;3.80;;;9.20;99.90;;;;;;5074645;28;20278;-74
2021/12/01 04:44:24;;;;;;;3.70;3.40;;;9.10;99.90;;;;;;5074658;28;20530;-74
2021/12/01 04:46:54;;;;;;;3.57;3.27;;;9.10;99.90;;;;;;5074058;28;20165;-74
2021/12/01 04:49:22;;;;;;;5.10;2.87;;;9.10;99.90;;;;;;5074192;28;20220;-74
2021/12/01 04:51:51;;;;;;;3.47;3.27;;;9.00;99.90;;;;;;5074017;28;20164;-74
2021/12/01 04:54:17;;;;;;;3.00;2.80;;;9.00;99.90;;;;;;5074438;28;20180;-75
2021/12/01 04:56:45;;;;;;;3.13;2.83;;;8.90;99.90;;;;;;5074138;28;20177;-74
2021/12/01 04:59:11;;;;;;;3.83;3.37;;;9.00;99.90;;;;;;5074097;28;20253;-76
2021/12/01 05:01:37;;;;;;;3.10;2.90;;;8.90;99.90;;;;;;5073320;28;20255;-74
2021/12/01 05:04:04;;;;;;;3.73;3.43;;;8.90;99.90;;;;;;5073840;28;20173;-74
2021/12/01 05:06:30;;;;;;;3.70;3.33;;;8.90;99.90;;;;;;5074431;28;20176;-75
2021/12/01 05:08:56;;;;;;;3.37;3.13;;;8.80;99.90;;;;;;5073453;28;20183;-74
2021/12/01 05:11:22;;;;;;;6.10;3.50;;;8.90;99.90;;;;;;5073069;28;20257;-76
2021/12/01 05:13:47;;;;;;;4.10;3.47;;;8.80;99.90;;;;;;5073733;28;20204;-75
2021/12/01 05:16:13;;;;;;;3.90;3.60;;;8.80;99.90;;;;;;5073486;28;20222;-76
2021/12/01 05:18:39;;;;;;;3.60;3.30;;;8.80;99.90;;;;;;5074007;28;20707;-75
2021/12/01 05:21:05;;;;;;;3.97;3.60;;;8.80;99.90;;;;;;5073126;28;20578;-74
2021/12/01 05:23:31;;;;;;;4.30;3.90;;;8.90;99.90;;;;;;5073580;28;20236;-74
2021/12/01 05:25:57;;;;;;;3.50;3.20;;;8.90;99.90;;;;;;5073327;28;20196;-74
2021/12/01 05:28:23;;;;;;;5.20;3.97;;;8.90;99.90;;;;;;5073222;28;20196;-74
2021/12/01 05:30:49;;;;;;;4.80;4.30;;;8.90;99.90;;;;;;5072994;28;20180;-74
2021/12/01 05:33:15;;;;;;;5.10;4.40;;;9.00;99.90;;;;;;5073166;28;20173;-74
2021/12/01 05:35:42;;;;;;;5.33;4.40;;;8.90;99.90;;;;;;5071561;28;20169;-75
2021/12/01 05:38:09;;;;;;;6.33;5.70;;;8.90;99.90;;;;;;5073047;28;20228;-74
2021/12/01 05:40:35;;;;;;;6.50;4.00;;;8.90;99.90;;;;;;5073192;28;20177;-75
2021/12/01 05:43:01;;;;;;;4.27;3.27;;;9.00;99.90;;;;;;5072354;28;20208;-74
2021/12/01 05:45:27;;;;;;;3.30;3.00;;;9.00;99.90;;;;;;5072538;28;20229;-74
2021/12/01 05:47:52;;;;;;;2.83;2.63;;;9.10;99.90;;;;;;5071098;28;20534;-74
2021/12/01 05:50:18;;;;;;;2.67;2.10;;;9.10;99.90;;;;;;5072621;28;20632;-74
2021/12/01 05:52:44;;;;;;;1.90;1.80;;;9.10;99.90;;;;;;5072699;28;20655;-74
2021/12/01 05:55:10;;;;;;;2.03;1.93;;;9.20;99.90;;;;;;5072336;28;20167;-75
2021/12/01 05:57:36;;;;;;;3.67;1.90;;;9.20;99.90;;;;;;5072613;28;20172;-76
2021/12/01 06:00:08;;;;;;;2.17;1.77;;;9.20;99.90;;;;;;5071739;28;20662;-75
2021/12/01 06:02:34;;;;;;;1.70;1.47;;;9.20;99.90;;;;;;5072127;28;20287;-75
2021/12/01 06:05:00;;;;;;;2.00;1.80;;;9.30;99.90;;;;;;5073148;28;20196;-75
2021/12/01 06:07:26;;;;;;;1.60;1.50;;;9.30;99.90;;;;;;5072537;28;20667;-75
2021/12/01 06:09:51;;;;;;;2.10;1.90;;;9.40;99.90;;;;;;5072446;28;20215;-74
2021/12/01 06:12:17;;;;;;;2.30;2.10;;;9.30;99.90;;;;;;5072415;28;20192;-75
2021/12/01 06:14:45;;;;;;;3.50;2.50;;;9.30;99.90;;;;;;5071737;28;20181;-75
2021/12/01 06:17:12;;;;;;;3.83;2.30;;;9.30;99.90;;;;;;5072373;28;20173;-75
2021/12/01 06:19:38;;;;;;;2.57;2.37;;;9.30;99.90;;;;;;5072349;28;20169;-75
2021/12/01 06:22:04;;;;;;;2.50;2.07;;;9.30;99.90;;;;;;5071701;28;20560;-75
2021/12/01 06:24:30;;;;;;;3.83;2.20;;;9.30;99.90;;;;;;5072391;28;20176;-75
2021/12/01 06:26:56;;;;;;;2.00;1.90;;;9.30;99.90;;;;;;5071889;28;20168;-74
2021/12/01 06:29:22;;;;;;;1.97;1.87;;;9.30;99.90;;;;;;5071612;28;20211;-74
2021/12/01 06:31:47;;;;;;;2.10;2.00;;;9.30;99.90;;;;;;5071968;28;20174;-74
2021/12/01 06:34:13;;;;;;;2.00;1.83;;;9.30;99.90;;;;;;5071930;28;20179;-74
2021/12/01 06:36:39;;;;;;;1.97;1.83;;;9.30;99.90;;;;;;5071279;28;20184;-74
2021/12/01 06:39:06;;;;;;;1.83;1.73;;;9.30;99.90;;;;;;5071875;28;20172;-75
2021/12/01 06:41:32;;;;;;;1.80;1.70;;;9.40;99.90;;;;;;5070971;28;20181;-74
2021/12/01 06:43:58;;;;;;;2.13;1.80;;;9.40;99.90;;;;;;5071441;28;20208;-75
2021/12/01 06:46:24;;;;;;;2.93;1.90;;;9.40;99.90;;;;;;5070865;28;20284;-75
2021/12/01 06:48:50;;;;;;;1.60;1.50;;;9.50;99.90;;;;;;5072219;28;20176;-75
2021/12/01 06:51:19;;;;;;;3.03;1.70;;;9.50;99.90;;;;;;5071690;28;20632;-75
2021/12/01 06:53:44;;;;;;;2.70;1.90;;;9.50;99.90;;;;;;5070920;28;20211;-74
2021/12/01 06:56:10;;;;;;;3.47;1.60;;;9.60;99.90;;;;;;5074318;28;20550;-75
2021/12/01 06:58:37;;;;;;;1.60;1.50;;;9.50;99.90;;;;;;5075532;28;20168;-75
2021/12/01 07:01:05;;;;;;;2.20;1.60;;;9.60;99.90;;;;;;5075012;28;20226;-74
2021/12/01 07:03:31;;;;;;;1.73;1.60;;;9.60;99.90;;;;;;5075113;28;20208;-74
2021/12/01 07:05:57;;;;;;;1.70;1.60;;;9.60;99.90;;;;;;5076016;28;20176;-74
2021/12/01 07:08:23;;;;;;;1.60;1.50;;;9.60;99.90;;;;;;5075375;28;20181;-74
2021/12/01 07:10:49;;;;;;;2.00;1.50;;;9.70;99.90;;;;;;5074293;28;20712;-76
2021/12/01 07:13:15;;;;;;;2.70;1.67;;;9.70;99.90;;;;;;5074061;28;20168;-74
2021/12/01 07:15:41;;;;;;;1.73;1.63;;;9.80;99.90;;;;;;5074890;28;20183;-73
2021/12/01 07:18:08;;;;;;;1.90;1.50;;;9.70;99.90;;;;;;5075265;28;20233;-74
2021/12/01 07:20:33;;;;;;;2.47;1.50;;;9.60;99.90;;;;;;5075669;28;20172;-74
2021/12/01 07:22:59;;;;;;;1.93;1.50;;;9.60;99.90;;;;;;5074294;28;20740;-74
2021/12/01 07:25:25;;;;;;;1.53;1.10;;;9.60;99.90;;;;;;5074169;28;20248;-74
2021/12/01 07:27:50;;;;;;;1.60;1.50;;;9.70;99.90;;;;;;5074658;28;20179;-74
2021/12/01 07:30:16;;;;;;;1.83;1.70;;;9.70;99.90;;;;;;5075053;28;20207;-74
2021/12/01 07:32:42;;;;;;;1.27;1.27;;;9.70;99.90;;;;;;5074324;28;20172;-74
2021/12/01 07:35:08;;;;;;;1.80;1.63;;;9.70;99.90;;;;;;5074334;28;20260;-75
2021/12/01 07:37:34;;;;;;;1.83;1.63;;;9.70;99.90;;;;;;5075066;28;20176;-75
2021/12/01 07:40:03;;;;;;;1.80;1.70;;;9.60;99.90;;;;;;5074302;28;20272;-74
2021/12/01 07:42:29;;;;;;;1.40;1.40;;;9.70;99.90;;;;;;5072826;28;20308;-74
2021/12/01 07:44:55;;;;;;;1.73;1.63;;;9.70;99.90;;;;;;5072979;28;20263;-76
2021/12/01 07:47:21;;;;;;;3.07;1.67;;;9.60;99.90;;;;;;5073833;28;20649;-76
2021/12/01 07:49:46;;;;;;;2.63;1.70;;;9.70;99.90;;;;;;5072768;28;20228;-76
2021/12/01 07:52:15;;;;;;;2.53;1.80;;;9.80;99.90;;;;;;5074512;28;20208;-74
2021/12/01 07:54:43;;;;;;;2.03;1.80;;;9.70;99.90;;;;;;5073920;28;20192;-75
2021/12/01 07:57:09;;;;;;;2.33;2.13;;;9.80;99.90;;;;;;5074383;28;20173;-76
2021/12/01 07:59:36;;;;;;;2.10;2.00;;;9.80;99.90;;;;;;5074494;28;20185;-76
2021/12/01 08:02:02;;;;;;;2.97;2.10;;;9.80;99.90;;;;;;5073843;28;20254;-75
2021/12/01 08:04:28;;;;;;;2.57;2.37;;;9.70;99.90;;;;;;5072843;28;20570;-76
2021/12/01 08:06:54;;;;;;;2.43;2.23;;;9.80;99.90;;;;;;5072877;28;20313;-76
2021/12/01 08:09:21;;;;;;;1.90;1.80;;;9.70;99.90;;;;;;5073439;28;20292;-76
2021/12/01 08:11:46;;;;;;;2.40;2.20;;;9.70;99.90;;;;;;5074007;28;20197;-76
2021/12/01 08:14:12;;;;;;;2.37;2.27;;;9.70;99.90;;;;;;5074823;28;20510;-75
2021/12/01 08:16:45;;;;;;;5.93;5.43;;;9.70;99.90;;;;;;5074194;28;20183;-75
2021/12/01 08:19:10;;;;;;;2.80;2.60;;;9.80;99.90;;;;;;5074108;28;20599;-75
2021/12/01 08:21:36;;;;;;;4.23;2.77;;;9.80;99.90;;;;;;5073865;28;20694;-74
2021/12/01 08:24:01;;;;;;;2.47;2.37;;;9.90;99.90;;;;;;5073592;28;20215;-76
2021/12/01 08:26:27;;;;;;;3.00;2.50;;;9.90;99.90;;;;;;5072868;28;20212;-75
2021/12/01 08:28:53;;;;;;;2.50;2.40;;;9.90;99.90;;;;;;5074606;28;20181;-74
2021/12/01 08:31:19;;;;;;;2.17;1.90;;;9.90;99.90;;;;;;5072362;28;20255;-74
2021/12/01 08:33:46;;;;;;;2.23;2.13;;;9.80;99.90;;;;;;5073950;28;20252;-75
2021/12/01 08:36:12;;;;;;;2.13;2.03;;;10.00;99.90;;;;;;5072698;28;20187;-74
2021/12/01 08:38:39;;;;;;;2.43;2.10;;;10.00;99.90;;;;;;5063093;28;20180;-74
2021/12/01 08:41:06;;;;;;;3.27;2.07;;;10.10;99.90;;;;;;5069528;28;20188;-75
2021/12/01 08:43:33;;;;;;;4.13;2.30;;;10.00;99.90;;;;;;5072887;28;20203;-75
2021/12/01 08:46:00;;;;;;;2.10;2.00;;;10.10;99.90;;;;;;5060943;28;20180;-75
2021/12/01 08:48:26;;;;;;;2.43;2.23;;;10.10;99.90;;;;;;5058663;28;20659;-73
2021/12/01 08:50:51;;;;;;;2.50;2.37;;;10.10;99.90;;;;;;5063442;28;21272;-73
2021/12/01 08:53:19;;;;;;;3.80;2.50;;;10.10;99.90;;;;;;5066102;28;20319;-75
2021/12/01 08:55:45;;;;;;;2.50;2.30;;;10.10;99.90;;;;;;5073750;28;20194;-76
2021/12/01 08:58:14;;;;;;;2.60;2.40;;;10.00;99.90;;;;;;5069483;28;20323;-76
2021/12/01 09:00:44;;;;;;;3.27;2.20;;;10.00;99.90;;;;;;5066872;28;20210;-76
2021/12/01 09:03:10;;;;;;;3.10;2.50;;;10.00;99.90;;;;;;5066707;28;20223;-76
2021/12/01 09:05:36;;;;;;;3.60;3.30;;;10.00;99.90;;;;;;5066759;28;20567;-77
2021/12/01 09:08:04;;;;;;;3.20;2.93;;;10.00;99.90;;;;;;5063634;28;20185;-78
2021/12/01 09:10:33;;;;;;;4.03;3.43;;;10.10;99.90;;;;;;5060694;28;20709;-76
2021/12/01 09:13:00;;;;;;;3.37;3.10;;;10.10;99.90;;;;;;5064799;28;20257;-76
2021/12/01 09:15:26;;;;;;;3.30;3.10;;;10.10;99.90;;;;;;5071570;28;20644;-76
2021/12/01 09:17:52;;;;;;;3.30;3.10;;;10.20;99.90;;;;;;5069819;28;20191;-76
2021/12/01 09:20:18;;;;;;;3.40;2.70;;;10.10;99.90;;;;;;5063207;28;20543;-75
2021/12/01 09:22:46;;;;;;;3.30;3.10;;;10.10;99.90;;;;;;5069425;28;20319;-76
2021/12/01 09:25:15;;;;;;;4.83;3.30;;;10.10;99.90;;;;;;5063645;28;20234;-76
2021/12/01 09:27:43;;;;;;;4.33;2.93;;;10.20;99.90;;;;;;5066069;28;20248;-76
2021/12/01 09:30:10;;;;;;;3.37;3.07;;;10.20;99.90;;;;;;5061176;28;20268;-75
2021/12/01 09:32:37;;;;;;;3.60;2.70;;;10.20;99.90;;;;;;5066023;28;20250;-74
2021/12/01 09:35:05;;;;;;;3.43;3.13;;;10.20;99.90;;;;;;5075412;28;20179;-75
2021/12/01 09:37:31;;;;;;;3.87;3.30;;;10.20;99.90;;;;;;5069894;28;20198;-75
2021/12/01 09:39:56;;;;;;;3.30;3.00;;;10.20;99.90;;;;;;5070935;28;20187;-76
2021/12/01 09:42:25;;;;;;;3.77;3.47;;;10.20;99.90;;;;;;5069698;28;20210;-77
2021/12/01 09:44:56;;;;;;;3.30;3.00;;;10.30;99.90;;;;;;5072989;28;20290;-74
2021/12/01 09:47:24;;;;;;;3.67;3.37;;;10.20;99.90;;;;;;5067524;28;20226;-74
2021/12/01 09:49:50;;;;;;;2.80;2.60;;;10.20;99.90;;;;;;5070798;28;20184;-75
2021/12/01 09:52:19;;;;;;;3.23;2.93;;;10.10;99.90;;;;;;5070637;28;20629;-74
2021/12/01 09:54:49;;;;;;;2.40;2.10;;;10.20;99.90;;;;;;5067622;28;20176;-76
2021/12/01 09:57:14;;;;;;;2.10;1.83;;;10.10;99.90;;;;;;5066574;28;20279;-75
2021/12/01 09:59:44;;;;;;;4.00;2.40;;;10.10;99.90;;;;;;5069389;28;20184;-74
2021/12/01 10:02:11;;;;;;;3.13;2.30;;;10.10;99.90;;;;;;5064746;28;20224;-75
2021/12/01 10:04:36;;;;;;;3.27;1.80;;;10.00;99.90;;;;;;5071635;28;20219;-74
2021/12/01 10:07:12;;;;;;;3.47;1.80;;;10.00;99.90;;;;;;5071165;28;20212;-74
2021/12/01 10:09:42;;;;;;;2.87;1.70;;;9.90;99.90;;;;;;5073965;28;20172;-74
2021/12/01 10:12:08;;;;;;;5.67;1.80;;;9.90;99.90;;;;;;5070002;28;20199;-75
2021/12/01 10:14:34;;;;;;;3.73;1.93;;;9.80;99.90;;;;;;5066862;28;20179;-75
2021/12/01 10:16:59;;;;;;;5.10;1.97;;;9.80;99.90;;;;;;5067494;28;20259;-75
2021/12/01 10:19:25;;;;;;;4.77;1.70;;;9.80;99.90;;;;;;5064925;28;20191;-75
2021/12/01 10:21:52;;;;;;;3.73;1.90;;;9.90;99.90;;;;;;5062898;28;20239;-74
2021/12/01 10:24:26;;;;;;;14.87;3.40;;;10.00;99.90;;;;;;5063593;28;20635;-74
2021/12/01 10:26:55;;;;;;;5.20;1.83;;;10.10;99.90;;;;;;5066630;28;20172;-74
2021/12/01 10:29:27;;;;;;;4.57;1.80;;;10.20;99.90;;;;;;5069396;28;20165;-76
2021/12/01 10:31:54;;;;;;;5.67;1.63;;;10.40;99.90;;;;;;5060484;28;20192;-76
2021/12/01 10:34:43;;;;;;;12.37;2.23;;;10.60;99.90;;;;;;5065874;28;20189;-74
2021/12/01 10:37:28;;;;;;;5.27;1.87;;;10.60;99.90;;;;;;5063048;28;20207;-76
2021/12/01 10:40:23;;;;;;;7.47;2.60;;;10.60;99.90;;;;;;5064291;28;20165;-75
2021/12/01 10:42:50;;;;;;;5.33;1.63;;;10.70;99.90;;;;;;5078777;28;20255;-74
2021/12/01 10:45:18;;;;;;;5.57;1.90;;;10.50;99.90;;;;;;5067566;28;20172;-76
2021/12/01 10:47:44;;;;;;;6.23;1.80;;;10.40;99.90;;;;;;5069232;28;20264;-75
2021/12/01 10:50:16;;;;;;;5.00;1.53;;;10.40;99.90;;;;;;5067580;28;20259;-75
2021/12/01 10:52:47;;;;;;;11.47;3.17;;;10.20;99.90;;;;;;5062998;28;20183;-75
2021/12/01 10:55:16;;;;;;;5.13;2.23;;;10.20;99.90;;;;;;5068419;28;20184;-75
2021/12/01 10:57:54;;;;;;;5.53;1.67;;;10.20;99.90;;;;;;5066643;28;20173;-74
2021/12/01 11:00:23;;;;;;;6.57;2.00;;;10.20;99.90;;;;;;5064968;28;20215;-74
2021/12/01 11:02:50;;;;;;;6.43;2.60;;;10.20;99.90;;;;;;5063395;28;20255;-72
2021/12/01 11:05:27;;;;;;;6.37;1.90;;;10.30;99.90;;;;;;5063879;28;20180;-75
2021/12/01 11:07:53;;;;;;;6.00;2.10;;;10.40;99.90;;;;;;5061008;28;20211;-74
2021/12/01 11:10:23;;;;;;;5.97;1.80;;;10.30;99.90;;;;;;5057994;28;20622;-74
2021/12/01 11:13:00;;;;;;;7.77;2.30;;;10.40;99.90;;;;;;5067580;28;20262;-74
2021/12/01 11:15:29;;;;;;;5.50;1.87;;;10.40;99.90;;;;;;5067334;28;20216;-75
2021/12/01 11:17:57;;;;;;;8.40;2.13;;;10.30;99.90;;;;;;5068249;28;20577;-75
2021/12/01 11:20:49;;;;;;;8.90;1.93;;;10.20;99.90;;;;;;5064018;28;20188;-74
2021/12/01 11:23:25;;;;;;;2.50;1.93;;;10.20;99.90;;;;;;5068304;28;20228;-75
2021/12/01 11:25:55;;;;;;;5.73;2.03;;;10.30;99.90;;;;;;5065766;28;20172;-74
2021/12/01 11:28:24;;;;;;;8.20;2.10;;;10.40;99.90;;;;;;5065006;28;20168;-74
2021/12/01 11:30:56;;;;;;;6.00;1.60;;;10.50;99.90;;;;;;5068772;28;20211;-73
2021/12/01 11:33:23;;;;;;;1.67;1.33;;;10.50;99.90;;;;;;5060469;28;20196;-73
2021/12/01 11:36:06;;;;;;;6.50;1.77;;;10.60;99.90;;;;;;5060912;28;20189;-74
2021/12/01 11:38:32;;;;;;;4.50;3.40;;;10.80;99.90;;;;;;5065414;28;20184;-74
2021/12/01 11:40:59;;;;;;;5.60;3.47;;;11.00;99.90;;;;;;5070050;28;20222;-75
2021/12/01 11:43:28;;;;;;;3.13;1.57;;;11.10;99.90;;;;;;5064597;28;20216;-75
2021/12/01 11:46:02;;;;;;;2.60;1.40;;;11.10;99.90;;;;;;5073349;28;20173;-74
2021/12/01 11:48:31;;;;;;;6.83;5.33;;;11.20;99.90;;;;;;5073650;28;20168;-75
2021/12/01 11:51:05;;;;;;;3.83;3.47;;;11.30;99.90;;;;;;5066869;28;20173;-75
2021/12/01 11:53:37;;;;;;;7.17;2.67;;;11.40;99.90;;;;;;5053235;28;20548;-75
2021/12/01 11:56:26;;;;;;;5.63;1.40;;;11.30;99.90;;;;;;5053352;28;20197;-75
2021/12/01 11:59:03;;;;;;;3.13;1.63;;;11.30;99.90;;;;;;5054479;28;20174;-75
2021/12/01 12:01:38;;;;;;;4.83;2.00;;;11.30;99.90;;;;;;5054115;28;20244;-75
2021/12/01 12:04:06;;;;;;;7.60;6.27;;;11.40;99.90;;;;;;5057014;28;21406;-76
2021/12/01 12:06:35;;;;;;;2.73;1.83;;;11.10;99.90;;;;;;5067690;28;20639;-75
2021/12/01 12:09:05;;;;;;;3.10;1.60;;;11.10;99.90;;;;;;5063156;28;20160;-76
2021/12/01 12:11:35;;;;;;;2.33;1.70;;;11.00;99.90;;;;;;5063672;28;20295;-75
2021/12/01 12:14:08;;;;;;;18.73;14.90;;;11.00;99.90;;;;;;5063888;28;20182;-75
2021/12/01 12:16:36;;;;;;;3.33;2.07;;;11.00;99.90;;;;;;5067167;28;20327;-74
2021/12/01 12:19:06;;;;;;;3.90;1.83;;;10.90;99.90;;;;;;5065327;28;20181;-75
2021/12/01 12:24:04;;;;;;;3.57;1.90;;;10.70;99.90;;;;;;5061092;28;20213;-74
2021/12/01 12:26:34;;;;;;;5.97;2.30;;;10.70;99.90;;;;;;5063866;28;20251;-76
2021/12/01 12:29:06;;;;;;;3.33;1.50;;;10.80;99.90;;;;;;5067455;28;20634;-75
2021/12/01 12:31:32;;;;;;;5.30;1.50;;;10.80;99.90;;;;;;5065803;28;20492;-74
2021/12/01 12:34:08;;;;;;;3.60;1.57;;;10.90;99.90;;;;;;5066770;28;20173;-75
2021/12/01 12:36:49;;;;;;;4.33;1.73;;;10.80;99.90;;;;;;5059716;28;20188;-75
2021/12/01 12:39:18;;;;;;;5.97;2.17;;;10.70;99.90;;;;;;5058996;28;20177;-75
2021/12/01 12:41:57;;;;;;;4.10;2.67;;;10.60;99.90;;;;;;5065305;28;20185;-75
2021/12/01 12:44:33;;;;;;;13.77;8.33;;;10.80;99.90;;;;;;5063205;28;20184;-75
2021/12/01 12:47:10;;;;;;;2.27;1.40;;;10.90;99.90;;;;;;5061609;28;20225;-74
2021/12/01 12:49:41;;;;;;;5.73;4.47;;;10.90;99.90;;;;;;5060062;28;20268;-75
2021/12/01 12:52:25;;;;;;;5.87;3.33;;;10.80;99.90;;;;;;5066600;28;20238;-75
2021/12/01 12:54:53;;;;;;;3.03;1.70;;;10.90;99.90;;;;;;5056262;28;20181;-76
2021/12/01 12:57:24;;;;;;;8.67;7.80;;;10.90;99.90;;;;;;5062001;28;20199;-77
2021/12/01 13:00:17;;;;;;;3.93;1.50;;;10.80;99.90;;;;;;5065523;28;20238;-76
2021/12/01 13:02:43;;;;;;;3.23;1.60;;;10.80;99.90;;;;;;5063939;28;20232;-76
2021/12/01 13:05:09;;;;;;;4.13;2.00;;;10.80;99.90;;;;;;5057746;28;20204;-74
2021/12/01 13:07:47;;;;;;;3.47;1.57;;;10.90;99.90;;;;;;5059624;28;20196;-76